Time;durP1;ratioP1;P1;durP2;ratioP2;P2;SDS_P1;SDS_P2;PMS_P1;PMS_P2;Temp;Humidity;BMP_temperature;BMP_pressure;BME280_temperature;BME280_humidity;BME280_pressure;Samples;Min_cycle;Max_cycle;Signal;HPM_P1;HPM_P2
2023/07/14 00:01:37;;;;;;;;;;;12.40;70.20;;;;;;6308484;22;20326;-71
2023/07/14 00:04:09;;;;;;;;;;;12.40;70.00;;;;;;6308403;22;19909;-71
2023/07/14 00:06:36;;;;;;;;;;;12.60;70.30;;;;;;6281486;22;19907;-71
2023/07/14 00:09:02;;;;;;;;;;;12.60;70.20;;;;;;6308410;22;19903;-71
2023/07/14 00:11:29;;;;;;;;;;;12.70;69.90;;;;;;6280605;22;19922;-71
2023/07/14 00:13:57;;;;;;;;;;;12.70;69.80;;;;;;6280839;22;19982;-71
2023/07/14 00:16:25;;;;;;;;;;;12.80;69.60;;;;;;6280765;22;19978;-71
2023/07/14 00:18:51;;;;;;;;;;;12.90;69.30;;;;;;6281248;22;19903;-71
2023/07/14 00:21:21;;;;;;;;;;;13.00;69.40;;;;;;6281034;22;19918;-71
2023/07/14 00:23:48;;;;;;;;;;;13.00;69.00;;;;;;6281280;22;19914;-71
2023/07/14 00:26:16;;;;;;;;;;;13.10;68.40;;;;;;6307862;22;20348;-69
2023/07/14 00:28:43;;;;;;;;;;;13.20;68.00;;;;;;6307495;22;19915;-69
2023/07/14 00:31:10;;;;;;;;;;;13.20;67.80;;;;;;6307794;22;20033;-71
2023/07/14 00:33:37;;;;;;;;;;;13.30;67.60;;;;;;6281135;22;20306;-71
2023/07/14 00:36:05;;;;;;;;;;;13.40;67.60;;;;;;6308108;22;19903;-71
2023/07/14 00:38:34;;;;;;;;;;;13.50;67.20;;;;;;6307738;22;19910;-69
2023/07/14 00:41:01;;;;;;;;;;;13.60;67.20;;;;;;6280910;22;20285;-69
2023/07/14 00:43:29;;;;;;;;;;;13.60;67.20;;;;;;6280653;22;19910;-69
2023/07/14 00:46:01;;;;;;;;;;;13.70;67.50;;;;;;6280272;22;21408;-69
2023/07/14 00:48:28;;;;;;;;;;;13.80;67.80;;;;;;6280783;22;19928;-69
2023/07/14 00:51:03;;;;;;;;;;;13.80;68.00;;;;;;6280582;22;19910;-69
2023/07/14 00:53:33;;;;;;;;;;;13.90;67.80;;;;;;6280913;22;19910;-69
2023/07/14 00:56:15;;;;;;;;;;;14.00;67.50;;;;;;6307369;22;19915;-69
2023/07/14 00:58:46;;;;;;;;;;;14.20;67.30;;;;;;6307797;22;20288;-69
2023/07/14 01:01:21;;;;;;;;;;;14.20;66.90;;;;;;6281328;22;19942;-69
2023/07/14 01:03:51;;;;;;;;;;;14.30;67.00;;;;;;6307994;22;19938;-69
2023/07/14 01:06:19;;;;;;;;;;;14.40;67.10;;;;;;6307431;22;19903;-69
2023/07/14 01:08:52;;;;;;;;;;;14.50;67.10;;;;;;6307662;22;20020;-69
2023/07/14 01:11:20;;;;;;;;;;;14.50;66.80;;;;;;6307385;22;19903;-69
2023/07/14 01:13:46;;;;;;;;;;;14.70;66.60;;;;;;6254757;22;19906;-70
2023/07/14 01:16:14;;;;;;;;;;;14.70;66.00;;;;;;6280552;22;19903;-69
2023/07/14 01:18:42;;;;;;;;;;;14.70;65.30;;;;;;6307596;22;19913;-69
2023/07/14 01:21:09;;;;;;;;;;;14.70;64.70;;;;;;6307142;22;19922;-69
2023/07/14 01:23:54;;;;;;;;;;;14.80;64.80;;;;;;6280212;22;19986;-69
2023/07/14 01:26:39;;;;;;;;;;;14.80;64.60;;;;;;6307435;22;20330;-69
2023/07/14 01:29:06;;;;;;;;;;;14.90;64.70;;;;;;6307720;22;19915;-69
2023/07/14 01:31:32;;;;;;;;;;;14.90;65.60;;;;;;6280344;22;19915;-69
2023/07/14 01:33:59;;;;;;;;;;;15.00;65.40;;;;;;6279991;22;19907;-69
2023/07/14 01:36:26;;;;;;;;;;;15.10;64.20;;;;;;6280359;22;19938;-69
2023/07/14 01:38:53;;;;;;;;;;;15.10;63.30;;;;;;6254630;22;20288;-69
2023/07/14 01:41:20;;;;;;;;;;;15.20;63.10;;;;;;6307208;22;20240;-70
2023/07/14 01:43:47;;;;;;;;;;;15.20;62.90;;;;;;6307115;22;19985;-70
2023/07/14 01:46:16;;;;;;;;;;;15.20;62.60;;;;;;6254597;22;20230;-70
2023/07/14 01:48:58;;;;;;;;;;;15.20;62.30;;;;;;6254944;22;19989;-70
2023/07/14 01:51:26;;;;;;;;;;;15.20;61.90;;;;;;6307344;22;19903;-69
2023/07/14 01:54:04;;;;;;;;;;;15.20;61.40;;;;;;6280175;22;19910;-70
2023/07/14 01:56:30;;;;;;;;;;;15.20;61.40;;;;;;6306936;22;19907;-69
2023/07/14 01:59:10;;;;;;;;;;;15.30;61.30;;;;;;6307200;22;20006;-69
2023/07/14 02:01:38;;;;;;;;;;;15.40;60.70;;;;;;6279909;22;19911;-71
2023/07/14 02:04:05;;;;;;;;;;;15.40;60.70;;;;;;6280225;22;19922;-71
2023/07/14 02:06:32;;;;;;;;;;;15.50;60.40;;;;;;6279796;22;19906;-71
2023/07/14 02:08:59;;;;;;;;;;;15.50;60.20;;;;;;6280269;22;19903;-70
2023/07/14 02:11:26;;;;;;;;;;;15.50;59.80;;;;;;6306731;22;19911;-70
2023/07/14 02:13:54;;;;;;;;;;;15.60;60.00;;;;;;6279956;22;19981;-71
2023/07/14 02:16:21;;;;;;;;;;;15.70;59.70;;;;;;6279827;22;20326;-70
2023/07/14 02:18:47;;;;;;;;;;;15.70;59.20;;;;;;6254128;22;20008;-71
2023/07/14 02:21:15;;;;;;;;;;;15.80;58.70;;;;;;6279980;22;19911;-69
2023/07/14 02:23:42;;;;;;;;;;;15.80;58.70;;;;;;6279948;22;19910;-70
2023/07/14 02:26:13;;;;;;;;;;;15.90;58.90;;;;;;6279766;22;20238;-69
2023/07/14 02:28:40;;;;;;;;;;;15.90;58.30;;;;;;6279791;22;19918;-70
2023/07/14 02:31:12;;;;;;;;;;;16.00;57.70;;;;;;6279272;22;20249;-69
2023/07/14 02:33:38;;;;;;;;;;;16.00;57.00;;;;;;6279674;22;19907;-70
2023/07/14 02:36:08;;;;;;;;;;;16.10;56.80;;;;;;6279701;22;19903;-69
2023/07/14 02:38:36;;;;;;;;;;;16.20;56.70;;;;;;6307084;22;20302;-69
2023/07/14 02:41:05;;;;;;;;;;;16.20;56.20;;;;;;6306913;22;19914;-70
2023/07/14 02:43:32;;;;;;;;;;;16.20;56.10;;;;;;6306725;22;19918;-69
2023/07/14 02:46:01;;;;;;;;;;;16.20;56.30;;;;;;6306801;22;20330;-69
2023/07/14 02:48:29;;;;;;;;;;;16.20;56.00;;;;;;6306694;22;19979;-70
2023/07/14 02:50:56;;;;;;;;;;;16.20;55.90;;;;;;6279514;22;19914;-70
2023/07/14 02:53:23;;;;;;;;;;;16.30;56.10;;;;;;6306810;22;19938;-69
2023/07/14 02:55:49;;;;;;;;;;;16.30;55.90;;;;;;6306946;22;19906;-70
2023/07/14 02:58:17;;;;;;;;;;;16.30;55.40;;;;;;6306567;22;20310;-69
2023/07/14 03:00:44;;;;;;;;;;;16.40;55.20;;;;;;6306447;22;20010;-70
2023/07/14 03:03:11;;;;;;;;;;;16.50;55.00;;;;;;6279219;22;19906;-70
2023/07/14 03:05:38;;;;;;;;;;;16.50;55.10;;;;;;6306566;22;19906;-69
2023/07/14 03:08:07;;;;;;;;;;;16.50;55.20;;;;;;6306804;22;20322;-70
2023/07/14 03:10:34;;;;;;;;;;;16.50;55.10;;;;;;6306913;22;19926;-70
2023/07/14 03:13:01;;;;;;;;;;;16.50;54.90;;;;;;6279586;22;20215;-70
2023/07/14 03:15:27;;;;;;;;;;;16.50;55.00;;;;;;6306879;22;19946;-70
2023/07/14 03:17:54;;;;;;;;;;;16.50;54.80;;;;;;6306696;22;19903;-70
2023/07/14 03:20:22;;;;;;;;;;;16.60;55.50;;;;;;6306673;22;20318;-70
2023/07/14 03:22:48;;;;;;;;;;;16.70;55.80;;;;;;6306500;22;20186;-70
2023/07/14 03:25:15;;;;;;;;;;;16.70;55.20;;;;;;6306885;22;19903;-69
2023/07/14 03:27:43;;;;;;;;;;;16.70;54.70;;;;;;6306641;22;19949;-70
2023/07/14 03:30:10;;;;;;;;;;;16.70;54.50;;;;;;6308259;22;19903;-70
2023/07/14 03:32:37;;;;;;;;;;;16.80;54.40;;;;;;6308500;22;20237;-69
2023/07/14 03:35:04;;;;;;;;;;;16.80;54.20;;;;;;6308677;22;20306;-70
2023/07/14 03:37:31;;;;;;;;;;;16.90;54.10;;;;;;6308807;22;19907;-70
2023/07/14 03:39:57;;;;;;;;;;;16.90;54.00;;;;;;6308227;22;19907;-70
2023/07/14 03:42:24;;;;;;;;;;;16.90;53.90;;;;;;6281076;22;19962;-70
2023/07/14 03:44:51;;;;;;;;;;;16.90;54.10;;;;;;6308577;22;19903;-69
2023/07/14 03:47:18;;;;;;;;;;;17.00;54.00;;;;;;6308566;22;19990;-69
2023/07/14 03:49:44;;;;;;;;;;;17.00;53.40;;;;;;6308349;22;19946;-70
2023/07/14 03:52:13;;;;;;;;;;;17.10;53.50;;;;;;6307879;22;19906;-70
2023/07/14 03:54:39;;;;;;;;;;;17.10;53.70;;;;;;6308124;22;19914;-70
2023/07/14 03:57:06;;;;;;;;;;;17.20;53.90;;;;;;6308311;22;19910;-70
2023/07/14 03:59:33;;;;;;;;;;;17.20;53.00;;;;;;6307872;22;20294;-70
2023/07/14 04:02:00;;;;;;;;;;;17.20;52.30;;;;;;6308148;22;19956;-70
2023/07/14 04:04:28;;;;;;;;;;;17.30;52.00;;;;;;6308065;22;19907;-70
2023/07/14 04:06:55;;;;;;;;;;;17.30;52.00;;;;;;6308159;22;19907;-70
2023/07/14 04:09:21;;;;;;;;;;;17.30;51.90;;;;;;6308366;22;19930;-69
2023/07/14 04:11:48;;;;;;;;;;;17.30;51.80;;;;;;6308358;22;19903;-70
2023/07/14 04:14:16;;;;;;;;;;;17.40;51.60;;;;;;6307715;22;20332;-70
2023/07/14 04:16:42;;;;;;;;;;;17.50;52.00;;;;;;6307706;22;19991;-70
2023/07/14 04:19:09;;;;;;;;;;;17.50;52.10;;;;;;6307867;22;19981;-70
2023/07/14 04:21:36;;;;;;;;;;;17.50;52.00;;;;;;6307765;22;20246;-70
2023/07/14 04:24:03;;;;;;;;;;;17.50;52.50;;;;;;6307981;22;19903;-70
2023/07/14 04:26:29;;;;;;;;;;;17.50;52.80;;;;;;6307628;22;19958;-69
2023/07/14 04:28:56;;;;;;;;;;;17.60;53.20;;;;;;6308103;22;19956;-70
2023/07/14 04:31:23;;;;;;;;;;;17.60;52.60;;;;;;6307787;22;19997;-70
2023/07/14 04:33:50;;;;;;;;;;;17.60;52.50;;;;;;6307868;22;19907;-70
2023/07/14 04:36:17;;;;;;;;;;;17.60;52.20;;;;;;6280555;22;19910;-69
2023/07/14 04:38:47;;;;;;;;;;;17.70;52.60;;;;;;6254782;22;19906;-70
2023/07/14 04:41:14;;;;;;;;;;;17.70;52.50;;;;;;6307645;22;19910;-70
2023/07/14 04:43:41;;;;;;;;;;;17.70;52.40;;;;;;6307772;22;19914;-70
2023/07/14 04:46:08;;;;;;;;;;;17.70;52.80;;;;;;6280504;22;19903;-69
2023/07/14 04:48:34;;;;;;;;;;;17.80;52.60;;;;;;6280437;22;19903;-70
2023/07/14 04:51:01;;;;;;;;;;;17.80;53.10;;;;;;6307195;22;19910;-70
2023/07/14 04:53:28;;;;;;;;;;;17.70;53.00;;;;;;6307756;22;19903;-70
2023/07/14 04:55:55;;;;;;;;;;;17.70;52.60;;;;;;6307849;22;19926;-70
2023/07/14 04:58:21;;;;;;;;;;;17.80;52.70;;;;;;6307704;22;19903;-70
2023/07/14 05:00:49;;;;;;;;;;;17.80;52.70;;;;;;6307162;22;19911;-70
2023/07/14 05:03:16;;;;;;;;;;;17.80;52.90;;;;;;6307504;22;19907;-70
2023/07/14 05:05:42;;;;;;;;;;;17.80;52.80;;;;;;6307501;22;19903;-70
2023/07/14 05:08:09;;;;;;;;;;;17.80;52.90;;;;;;6307157;22;19955;-69
2023/07/14 05:10:38;;;;;;;;;;;17.80;53.00;;;;;;6307355;22;20314;-69
2023/07/14 05:13:04;;;;;;;;;;;17.90;53.40;;;;;;6307182;22;19935;-70
2023/07/14 05:15:31;;;;;;;;;;;17.80;53.50;;;;;;6307302;22;19903;-70
2023/07/14 05:17:58;;;;;;;;;;;17.90;53.40;;;;;;6307370;22;19910;-70
2023/07/14 05:20:25;;;;;;;;;;;17.90;53.30;;;;;;6307443;22;20279;-69
2023/07/14 05:22:52;;;;;;;;;;;17.80;53.10;;;;;;6307231;22;20310;-70
2023/07/14 05:25:19;;;;;;;;;;;17.80;53.30;;;;;;6307429;22;20242;-71
2023/07/14 05:27:46;;;;;;;;;;;17.80;53.40;;;;;;6280258;22;19919;-70
2023/07/14 05:30:17;;;;;;;;;;;17.80;53.40;;;;;;6307468;22;19910;-70
2023/07/14 05:32:44;;;;;;;;;;;17.90;53.50;;;;;;6307348;22;19909;-71
2023/07/14 05:35:11;;;;;;;;;;;17.90;54.00;;;;;;6280210;22;19903;-70
2023/07/14 05:37:38;;;;;;;;;;;18.00;53.70;;;;;;6279673;22;19926;-70
2023/07/14 05:40:10;;;;;;;;;;;17.90;53.70;;;;;;6307193;22;20357;-70
2023/07/14 05:42:37;;;;;;;;;;;18.00;53.60;;;;;;6280820;22;20379;-70
2023/07/14 05:45:04;;;;;;;;;;;18.00;53.50;;;;;;6280121;22;19903;-70
2023/07/14 05:47:31;;;;;;;;;;;18.00;53.60;;;;;;6280261;22;20322;-70
2023/07/14 05:49:58;;;;;;;;;;;18.00;53.60;;;;;;6279806;22;19903;-70
2023/07/14 05:52:25;;;;;;;;;;;18.00;53.60;;;;;;6306408;22;19903;-70
2023/07/14 05:54:51;;;;;;;;;;;18.00;53.50;;;;;;6307402;22;20222;-70
2023/07/14 05:57:18;;;;;;;;;;;18.00;53.40;;;;;;6307524;22;19910;-70
2023/07/14 05:59:45;;;;;;;;;;;18.00;53.30;;;;;;6306701;22;19983;-70
2023/07/14 06:02:13;;;;;;;;;;;18.00;53.20;;;;;;6306314;22;19937;-70
2023/07/14 06:04:42;;;;;;;;;;;18.00;53.40;;;;;;6307099;22;19903;-70
2023/07/14 06:07:10;;;;;;;;;;;18.00;53.80;;;;;;6307239;22;20348;-71
2023/07/14 06:09:36;;;;;;;;;;;18.00;53.50;;;;;;6279885;22;19948;-72
2023/07/14 06:12:04;;;;;;;;;;;18.00;52.40;;;;;;6306211;22;19910;-72
2023/07/14 06:14:34;;;;;;;;;;;18.00;52.00;;;;;;6306210;22;20220;-71
2023/07/14 06:17:01;;;;;;;;;;;17.90;52.60;;;;;;6307306;22;19935;-71
2023/07/14 06:19:27;;;;;;;;;;;18.00;52.70;;;;;;6305753;22;19903;-74
2023/07/14 06:21:54;;;;;;;;;;;17.90;52.30;;;;;;6303368;22;19950;-70
2023/07/14 06:24:22;;;;;;;;;;;17.90;51.80;;;;;;6303354;22;19911;-70
2023/07/14 06:26:48;;;;;;;;;;;17.90;51.40;;;;;;6303263;22;19993;-70
2023/07/14 06:29:15;;;;;;;;;;;17.80;51.00;;;;;;6303900;22;19986;-71
2023/07/14 06:31:42;;;;;;;;;;;17.80;50.80;;;;;;6303247;22;19914;-70
2023/07/14 06:34:09;;;;;;;;;;;17.80;51.00;;;;;;6303387;22;20279;-70
2023/07/14 06:36:35;;;;;;;;;;;17.80;51.00;;;;;;6303115;22;19906;-71
2023/07/14 06:39:04;;;;;;;;;;;17.80;50.80;;;;;;6303041;22;19910;-72
2023/07/14 06:41:31;;;;;;;;;;;17.80;51.00;;;;;;6303292;22;20308;-72
2023/07/14 06:43:58;;;;;;;;;;;17.80;50.90;;;;;;6303308;22;20279;-71
2023/07/14 06:46:25;;;;;;;;;;;17.70;51.00;;;;;;6303078;22;20330;-71
2023/07/14 06:48:52;;;;;;;;;;;17.70;50.90;;;;;;6303560;22;20324;-71
2023/07/14 06:51:19;;;;;;;;;;;17.70;51.00;;;;;;6303091;22;19911;-71
2023/07/14 06:53:46;;;;;;;;;;;17.70;51.00;;;;;;6303374;22;19914;-71
2023/07/14 06:56:12;;;;;;;;;;;17.70;51.10;;;;;;6303075;22;19907;-71
2023/07/14 06:58:39;;;;;;;;;;;17.70;51.00;;;;;;6303378;22;19907;-72
2023/07/14 07:01:06;;;;;;;;;;;17.70;51.10;;;;;;6303179;22;19957;-72
2023/07/14 07:03:34;;;;;;;;;;;17.70;51.30;;;;;;6304485;22;19981;-71
2023/07/14 07:06:01;;;;;;;;;;;17.60;51.20;;;;;;6305677;22;19907;-71
2023/07/14 07:08:27;;;;;;;;;;;17.60;51.40;;;;;;6305255;22;20324;-71
2023/07/14 07:10:54;;;;;;;;;;;17.50;51.50;;;;;;6304785;22;20322;-71
2023/07/14 07:13:21;;;;;;;;;;;17.50;51.50;;;;;;6305149;22;19903;-71
2023/07/14 07:15:48;;;;;;;;;;;17.50;51.70;;;;;;6305281;22;19930;-71
2023/07/14 07:18:15;;;;;;;;;;;17.50;52.00;;;;;;6302578;22;19906;-71
2023/07/14 07:20:42;;;;;;;;;;;17.50;52.20;;;;;;6304189;22;20348;-70
2023/07/14 07:23:09;;;;;;;;;;;17.40;52.20;;;;;;6305188;22;19911;-71
2023/07/14 07:25:36;;;;;;;;;;;17.30;52.20;;;;;;6305158;22;19980;-71
2023/07/14 07:28:03;;;;;;;;;;;17.40;52.30;;;;;;6305484;22;19957;-72
2023/07/14 07:30:31;;;;;;;;;;;17.30;52.40;;;;;;6304053;22;19976;-70
2023/07/14 07:32:58;;;;;;;;;;;17.30;52.50;;;;;;6303536;22;19937;-73
2023/07/14 07:35:25;;;;;;;;;;;17.30;52.80;;;;;;6277042;22;19963;-71
2023/07/14 07:37:52;;;;;;;;;;;17.30;52.90;;;;;;6304481;22;19907;-73
2023/07/14 07:40:18;;;;;;;;;;;17.30;53.20;;;;;;6304426;22;19915;-69
2023/07/14 07:42:45;;;;;;;;;;;17.20;53.60;;;;;;6304279;22;19915;-70
2023/07/14 07:45:12;;;;;;;;;;;17.20;54.40;;;;;;6303973;22;20322;-71
2023/07/14 07:47:39;;;;;;;;;;;17.20;54.80;;;;;;6304049;22;20445;-71
2023/07/14 07:50:06;;;;;;;;;;;17.10;55.20;;;;;;6304227;22;19907;-71
2023/07/14 07:52:33;;;;;;;;;;;17.00;55.50;;;;;;6303237;22;19914;-71
2023/07/14 07:54:59;;;;;;;;;;;16.90;55.70;;;;;;6304600;22;19907;-71
2023/07/14 07:57:26;;;;;;;;;;;16.90;55.90;;;;;;6304207;22;20238;-70
2023/07/14 07:59:53;;;;;;;;;;;16.80;56.10;;;;;;6303185;22;19907;-72
2023/07/14 08:02:20;;;;;;;;;;;16.80;56.20;;;;;;6304142;22;19915;-72
2023/07/14 08:04:49;;;;;;;;;;;16.80;56.50;;;;;;6303842;22;19926;-72
2023/07/14 08:07:16;;;;;;;;;;;16.70;56.70;;;;;;6303491;22;19981;-71
2023/07/14 08:09:43;;;;;;;;;;;16.70;56.90;;;;;;6302701;22;19907;-72
2023/07/14 08:12:10;;;;;;;;;;;16.70;57.00;;;;;;6275714;22;19907;-72
2023/07/14 08:14:50;;;;;;;;;;;16.70;57.00;;;;;;6303597;22;20241;-73
2023/07/14 08:17:16;;;;;;;;;;;16.70;57.10;;;;;;6304342;22;19929;-74
2023/07/14 08:19:45;;;;;;;;;;;16.70;57.20;;;;;;6301240;22;20318;-75
2023/07/14 08:22:11;;;;;;;;;;;16.60;57.20;;;;;;6304372;22;19915;-75
2023/07/14 08:24:38;;;;;;;;;;;16.60;57.20;;;;;;6304564;22;20242;-75
2023/07/14 08:27:05;;;;;;;;;;;16.60;57.10;;;;;;6304641;22;19939;-75
2023/07/14 08:29:32;;;;;;;;;;;16.60;57.20;;;;;;6304295;22;19914;-75
2023/07/14 08:31:58;;;;;;;;;;;16.50;57.40;;;;;;6301701;22;20462;-72
2023/07/14 08:34:27;;;;;;;;;;;16.50;57.60;;;;;;6302893;22;19911;-72
2023/07/14 08:36:54;;;;;;;;;;;16.40;57.70;;;;;;6302700;22;20248;-73
2023/07/14 08:39:21;;;;;;;;;;;16.40;57.90;;;;;;6304191;22;20387;-73
2023/07/14 08:41:49;;;;;;;;;;;16.40;58.00;;;;;;6303885;22;20413;-73
2023/07/14 08:44:28;;;;;;;;;;;16.40;58.20;;;;;;6275822;22;19907;-72
2023/07/14 08:47:13;;;;;;;;;;;16.40;58.50;;;;;;6303910;22;19903;-73
2023/07/14 08:49:50;;;;;;;;;;;16.30;58.90;;;;;;6276754;22;19938;-73
2023/07/14 08:52:24;;;;;;;;;;;16.40;59.10;;;;;;6304057;22;20292;-73
2023/07/14 08:54:53;;;;;;;;;;;16.30;59.00;;;;;;6276927;22;19986;-72
2023/07/14 08:57:21;;;;;;;;;;;16.30;59.10;;;;;;6276502;22;19957;-71
2023/07/14 08:59:48;;;;;;;;;;;16.30;59.30;;;;;;6276782;22;19914;-71
2023/07/14 09:02:44;;;;;;;;;;;16.30;59.40;;;;;;6275653;22;20262;-70
2023/07/14 09:05:20;;;;;;;;;;;16.30;59.40;;;;;;6269669;22;20365;-71
2023/07/14 09:07:46;;;;;;;;;;;16.20;59.40;;;;;;6250084;22;19913;-71
2023/07/14 09:10:13;;;;;;;;;;;16.30;59.50;;;;;;6303015;22;19976;-72
2023/07/14 09:12:57;;;;;;;;;;;16.20;59.70;;;;;;6276102;22;19993;-71
2023/07/14 09:15:25;;;;;;;;;;;16.20;59.90;;;;;;6276314;22;19960;-74
2023/07/14 09:17:56;;;;;;;;;;;16.20;60.10;;;;;;6274020;22;19907;-72
2023/07/14 09:20:41;;;;;;;;;;;16.20;60.20;;;;;;6303501;22;19903;-71
2023/07/14 09:23:18;;;;;;;;;;;16.20;60.30;;;;;;6303455;22;19949;-72
2023/07/14 09:26:17;;;;;;;;;;;16.20;60.40;;;;;;6275839;22;19955;-72
2023/07/14 09:28:50;;;;;;;;;;;16.20;60.50;;;;;;6190006;22;19949;-75
2023/07/14 09:31:23;;;;;;;;;;;16.20;60.60;;;;;;6245046;22;19981;-72
2023/07/14 09:34:00;;;;;;;;;;;16.20;60.80;;;;;;6271698;22;19939;-72
2023/07/14 09:36:27;;;;;;;;;;;16.10;61.00;;;;;;6245226;22;20327;-72
2023/07/14 09:38:54;;;;;;;;;;;16.10;61.20;;;;;;6244829;22;19935;-73
2023/07/14 09:41:23;;;;;;;;;;;16.00;61.40;;;;;;6244358;22;20000;-77
2023/07/14 09:43:50;;;;;;;;;;;16.00;61.70;;;;;;6271371;22;19903;-75
2023/07/14 09:46:17;;;;;;;;;;;15.80;61.90;;;;;;6272688;22;19911;-72
2023/07/14 09:48:56;;;;;;;;;;;15.80;62.20;;;;;;6272864;22;19965;-72
2023/07/14 09:51:23;;;;;;;;;;;15.80;62.50;;;;;;6245747;22;19907;-72
2023/07/14 09:53:57;;;;;;;;;;;15.70;62.60;;;;;;6245528;22;20310;-71
2023/07/14 09:56:26;;;;;;;;;;;15.70;62.70;;;;;;6271652;22;20323;-73
2023/07/14 09:58:53;;;;;;;;;;;15.70;62.90;;;;;;6245560;22;19923;-72
2023/07/14 10:01:20;;;;;;;;;;;15.70;62.90;;;;;;6271559;22;20254;-71
2023/07/14 10:03:51;;;;;;;;;;;15.70;63.00;;;;;;6271878;22;20348;-71
2023/07/14 10:06:22;;;;;;;;;;;15.70;63.00;;;;;;6270099;22;19908;-72
2023/07/14 10:08:56;;;;;;;;;;;15.60;63.20;;;;;;6270761;22;19903;-73
2023/07/14 10:11:30;;;;;;;;;;;15.60;63.20;;;;;;6244754;22;19915;-74
2023/07/14 10:13:59;;;;;;;;;;;15.50;63.30;;;;;;6271613;22;19907;-73
2023/07/14 10:16:27;;;;;;;;;;;15.50;63.60;;;;;;6272360;22;19982;-73
2023/07/14 10:18:57;;;;;;;;;;;15.40;63.70;;;;;;6269015;22;19910;-71
2023/07/14 10:21:25;;;;;;;;;;;15.30;63.80;;;;;;6242771;22;19912;-73
2023/07/14 10:24:06;;;;;;;;;;;15.30;64.10;;;;;;6271660;22;19986;-73
2023/07/14 10:26:36;;;;;;;;;;;15.30;64.10;;;;;;6246985;22;19921;-73
2023/07/14 10:29:06;;;;;;;;;;;15.30;64.10;;;;;;6302683;22;19918;-73
2023/07/14 10:31:41;;;;;;;;;;;15.30;64.10;;;;;;6302771;22;19918;-72
2023/07/14 10:34:08;;;;;;;;;;;15.20;64.30;;;;;;6275797;22;19907;-72
2023/07/14 10:36:37;;;;;;;;;;;15.20;64.50;;;;;;6302607;22;20384;-71
2023/07/14 10:39:36;;;;;;;;;;;15.10;64.70;;;;;;6275424;22;20352;-70
2023/07/14 10:42:04;;;;;;;;;;;15.10;64.90;;;;;;6217961;22;19918;-71
2023/07/14 10:44:33;;;;;;;;;;;15.00;64.90;;;;;;6275715;22;19910;-71
2023/07/14 10:47:02;;;;;;;;;;;15.00;65.10;;;;;;6276279;22;20293;-72
2023/07/14 10:49:40;;;;;;;;;;;15.00;65.40;;;;;;6276552;22;19907;-72
2023/07/14 10:52:11;;;;;;;;;;;15.00;66.30;;;;;;6275661;22;20357;-72
2023/07/14 10:55:07;;;;;;;;;;;14.90;66.70;;;;;;6276111;22;19987;-72
2023/07/14 10:57:49;;;;;;;;;;;14.90;66.80;;;;;;6269226;22;19910;-73
2023/07/14 11:00:19;;;;;;;;;;;14.80;67.00;;;;;;6302743;22;19909;-73
2023/07/14 11:02:54;;;;;;;;;;;14.90;66.60;;;;;;6301682;22;19915;-71
2023/07/14 11:05:22;;;;;;;;;;;14.90;66.30;;;;;;6275804;22;19907;-71
2023/07/14 11:07:49;;;;;;;;;;;14.90;66.10;;;;;;6275594;22;20048;-72
2023/07/14 11:10:22;;;;;;;;;;;14.90;65.90;;;;;;6275550;22;19960;-71
2023/07/14 11:13:14;;;;;;;;;;;15.00;65.80;;;;;;6302726;22;19903;-70
2023/07/14 11:15:42;;;;;;;;;;;15.00;65.80;;;;;;6295575;22;19999;-70
2023/07/14 11:18:16;;;;;;;;;;;15.00;65.70;;;;;;6272902;22;19943;-70
2023/07/14 11:20:54;;;;;;;;;;;15.00;65.80;;;;;;6274980;22;19907;-71
2023/07/14 11:23:24;;;;;;;;;;;15.00;65.80;;;;;;6275462;22;19911;-72
2023/07/14 11:26:20;;;;;;;;;;;15.00;65.90;;;;;;6302720;22;19907;-70
2023/07/14 11:28:53;;;;;;;;;;;15.00;66.00;;;;;;6137397;22;19987;-71
2023/07/14 11:31:27;;;;;;;;;;;15.00;65.80;;;;;;6271975;22;19907;-71
2023/07/14 11:34:09;;;;;;;;;;;14.90;66.00;;;;;;6245127;22;20300;-72
2023/07/14 11:36:50;;;;;;;;;;;14.90;66.00;;;;;;6271314;22;19961;-71
2023/07/14 11:39:23;;;;;;;;;;;14.90;65.60;;;;;;6244801;22;19960;-73
2023/07/14 11:41:50;;;;;;;;;;;14.90;65.40;;;;;;6273293;22;19915;-72
2023/07/14 11:44:18;;;;;;;;;;;14.90;65.20;;;;;;6248216;22;20322;-71
2023/07/14 11:46:44;;;;;;;;;;;14.90;65.00;;;;;;6248280;22;20003;-70
2023/07/14 11:49:25;;;;;;;;;;;15.00;64.80;;;;;;6247406;22;20317;-70
2023/07/14 11:51:52;;;;;;;;;;;15.00;64.60;;;;;;6276746;22;19903;-70
2023/07/14 11:54:24;;;;;;;;;;;15.00;64.40;;;;;;6249850;22;20227;-73
2023/07/14 11:56:58;;;;;;;;;;;15.00;64.50;;;;;;6249485;22;19926;-70
2023/07/14 11:59:29;;;;;;;;;;;15.00;64.60;;;;;;6276785;22;19931;-70
2023/07/14 12:01:56;;;;;;;;;;;15.00;64.50;;;;;;6248917;22;20060;-72
2023/07/14 12:04:33;;;;;;;;;;;14.90;64.50;;;;;;6249993;22;20353;-70
2023/07/14 12:07:19;;;;;;;;;;;15.00;64.60;;;;;;6249715;22;19907;-70
2023/07/14 12:09:58;;;;;;;;;;;14.90;64.60;;;;;;6276589;22;19904;-70
2023/07/14 12:12:25;;;;;;;;;;;14.90;64.70;;;;;;6249552;22;19986;-70
2023/07/14 12:14:52;;;;;;;;;;;14.80;64.90;;;;;;6276848;22;19930;-70
2023/07/14 12:17:37;;;;;;;;;;;14.80;65.40;;;;;;6249855;22;19907;-70
2023/07/14 12:20:14;;;;;;;;;;;14.80;65.80;;;;;;6276302;22;20057;-70
2023/07/14 12:22:41;;;;;;;;;;;14.70;65.90;;;;;;6223839;22;20002;-70
2023/07/14 12:25:15;;;;;;;;;;;14.80;65.90;;;;;;6249717;22;19903;-70
2023/07/14 12:27:44;;;;;;;;;;;14.70;66.00;;;;;;6292994;22;19990;-70
2023/07/14 12:30:27;;;;;;;;;;;14.70;66.50;;;;;;6280516;22;20270;-70
2023/07/14 12:32:55;;;;;;;;;;;14.70;66.50;;;;;;6280311;22;19981;-70
2023/07/14 12:35:25;;;;;;;;;;;14.70;66.60;;;;;;6306652;22;20027;-70
2023/07/14 12:37:52;;;;;;;;;;;14.70;66.70;;;;;;6307078;22;19910;-70
2023/07/14 12:40:19;;;;;;;;;;;14.60;66.70;;;;;;6307345;22;20318;-69
2023/07/14 12:42:46;;;;;;;;;;;14.60;66.70;;;;;;6307076;22;20227;-70
2023/07/14 12:45:13;;;;;;;;;;;14.50;66.90;;;;;;6278936;22;19903;-70
2023/07/14 12:47:41;;;;;;;;;;;14.50;66.90;;;;;;6279671;22;19931;-71
2023/07/14 12:50:09;;;;;;;;;;;14.50;67.00;;;;;;6279790;22;20283;-70
2023/07/14 12:52:36;;;;;;;;;;;14.50;67.10;;;;;;6279730;22;20322;-70
2023/07/14 12:55:04;;;;;;;;;;;14.40;67.20;;;;;;6307205;22;19910;-69
2023/07/14 12:57:31;;;;;;;;;;;14.40;67.10;;;;;;6307114;22;19963;-70
2023/07/14 12:59:59;;;;;;;;;;;14.30;67.20;;;;;;6280164;22;19956;-70
2023/07/14 13:02:25;;;;;;;;;;;14.30;67.40;;;;;;6307323;22;19911;-70
2023/07/14 13:04:52;;;;;;;;;;;14.30;67.60;;;;;;6307024;22;19934;-70
2023/07/14 13:07:23;;;;;;;;;;;14.20;67.70;;;;;;6280106;22;19932;-70
2023/07/14 13:10:00;;;;;;;;;;;14.20;68.30;;;;;;6280072;22;19982;-70
2023/07/14 13:12:26;;;;;;;;;;;14.10;68.40;;;;;;6306854;22;20272;-70
2023/07/14 13:14:53;;;;;;;;;;;14.00;69.00;;;;;;6280097;22;20333;-72
2023/07/14 13:17:21;;;;;;;;;;;13.90;69.30;;;;;;6307800;22;20321;-70
2023/07/14 13:19:48;;;;;;;;;;;14.00;69.50;;;;;;6306446;22;20316;-70
2023/07/14 13:22:20;;;;;;;;;;;14.00;69.40;;;;;;6278994;22;19910;-70
2023/07/14 13:24:59;;;;;;;;;;;14.00;69.40;;;;;;6306868;22;19972;-70
2023/07/14 13:27:26;;;;;;;;;;;14.00;69.30;;;;;;6278710;22;20217;-70
2023/07/14 13:30:00;;;;;;;;;;;14.10;69.20;;;;;;6307121;22;19903;-70
2023/07/14 13:32:27;;;;;;;;;;;14.10;69.20;;;;;;6279793;22;19909;-70
2023/07/14 13:34:56;;;;;;;;;;;14.10;69.10;;;;;;6307799;22;19930;-70
2023/07/14 13:37:22;;;;;;;;;;;14.00;69.20;;;;;;6279803;22;19993;-70
2023/07/14 13:39:58;;;;;;;;;;;14.10;68.80;;;;;;6306865;22;19907;-70
2023/07/14 13:42:29;;;;;;;;;;;14.00;68.70;;;;;;6279590;22;20219;-71
2023/07/14 13:44:57;;;;;;;;;;;14.10;68.70;;;;;;6280160;22;19957;-71
2023/07/14 13:47:24;;;;;;;;;;;14.10;68.60;;;;;;6253763;22;19902;-70
2023/07/14 13:49:52;;;;;;;;;;;14.00;68.90;;;;;;6279855;22;19903;-70
2023/07/14 13:52:20;;;;;;;;;;;14.00;68.90;;;;;;6279770;22;19907;-70
2023/07/14 13:54:48;;;;;;;;;;;14.00;68.90;;;;;;6306631;22;19907;-70
2023/07/14 13:57:14;;;;;;;;;;;14.00;69.30;;;;;;6307273;22;20366;-70
2023/07/14 13:59:42;;;;;;;;;;;13.90;69.70;;;;;;6306351;22;19910;-70
2023/07/14 14:02:29;;;;;;;;;;;13.80;69.70;;;;;;6307056;22;19930;-70
2023/07/14 14:04:55;;;;;;;;;;;13.70;70.00;;;;;;6280250;22;19961;-70
2023/07/14 14:07:22;;;;;;;;;;;13.70;70.10;;;;;;6306510;22;19907;-70
2023/07/14 14:09:49;;;;;;;;;;;13.60;70.50;;;;;;6305971;22;19926;-70
2023/07/14 14:12:16;;;;;;;;;;;13.50;70.80;;;;;;6305801;22;19903;-70
2023/07/14 14:14:44;;;;;;;;;;;13.50;71.30;;;;;;6305811;22;19903;-70
2023/07/14 14:17:22;;;;;;;;;;;13.40;72.20;;;;;;6306610;22;19903;-70
2023/07/14 14:19:48;;;;;;;;;;;13.40;72.60;;;;;;6279406;22;20008;-70
2023/07/14 14:22:15;;;;;;;;;;;13.40;72.70;;;;;;6306339;22;19918;-70
2023/07/14 14:24:42;;;;;;;;;;;13.50;72.50;;;;;;6306680;22;19957;-70
2023/07/14 14:27:08;;;;;;;;;;;13.60;71.80;;;;;;6306358;22;20325;-70
2023/07/14 14:29:35;;;;;;;;;;;13.60;71.60;;;;;;6305511;22;19914;-71